Time;durP1;ratioP1;P1;durP2;ratioP2;P2;SDS_P1;SDS_P2;PMS_P1;PMS_P2;Temp;Humidity;BMP_temperature;BMP_pressure;BME280_temperature;BME280_humidity;BME280_pressure;Samples;Min_cycle;Max_cycle;Signal;HPM_P1;HPM_P2
2024/01/16 00:00:03;;;;;;;3.40;1.00;;;;;;;-4.08;83.95;99198.92;104830;1291;61201;-60
2024/01/16 00:02:49;;;;;;;2.00;1.00;;;;;;;-4.15;84.03;99208.55;106102;1290;59509;-60
2024/01/16 00:05:35;;;;;;;;;;;;;;;-4.21;84.15;99217.88;106081;1290;74651;-61
2024/01/16 00:08:21;;;;;;;5.20;0.90;;;;;;;-4.26;84.01;99227.70;106113;1290;68396;-61
2024/01/16 00:11:07;;;;;;;;;;;;;;;-4.31;84.12;99232.65;106042;1290;71174;-60
2024/01/16 00:13:53;;;;;;;1.50;0.70;;;;;;;-4.33;84.15;99231.09;106056;1290;59240;-60
2024/01/16 00:16:43;;;;;;;0.70;0.50;;;;;;;-4.35;84.25;99232.57;106055;1290;60272;-61
2024/01/16 00:19:29;;;;;;;1.70;1.10;;;;;;;-4.32;84.20;99242.02;106086;1290;74017;-61
2024/01/16 00:22:15;;;;;;;;;;;;;;;-4.28;84.26;99245.33;105523;1291;67683;-59
2024/01/16 00:25:02;;;;;;;3.30;0.50;;;;;;;-4.27;84.07;99250.23;104725;1290;71472;-60
2024/01/16 00:27:48;;;;;;;1.30;0.70;;;;;;;-4.29;84.30;99253.70;104736;1291;60709;-59
2024/01/16 00:30:34;;;;;;;1.10;0.60;;;;;;;-4.31;84.36;99257.36;104767;1291;61205;-59
2024/01/16 00:33:21;;;;;;;2.50;0.80;;;;;;;-4.35;84.34;99258.30;104731;1290;73278;-59
2024/01/16 00:36:07;;;;;;;1.10;0.70;;;;;;;-4.37;84.41;99261.11;104820;1294;67442;-59
2024/01/16 00:38:53;;;;;;;1.40;0.80;;;;;;;-4.43;84.36;99267.38;104745;1295;72323;-59
2024/01/16 00:41:39;;;;;;;2.20;0.60;;;;;;;-4.48;84.31;99269.95;104823;1291;61285;-60
2024/01/16 00:44:26;;;;;;;1.50;0.70;;;;;;;-4.52;84.38;99266.67;104735;1292;60360;-60
2024/01/16 00:47:12;;;;;;;1.70;0.80;;;;;;;-4.56;84.34;99269.42;104710;1291;73393;-59
2024/01/16 00:50:00;;;;;;;0.70;0.40;;;;;;;-4.62;84.31;99272.66;104621;1291;67840;-59
2024/01/16 00:52:46;;;;;;;3.00;1.00;;;;;;;-4.62;84.25;99284.41;104784;1291;72320;-59
2024/01/16 00:55:32;;;;;;;1.50;0.70;;;;;;;-4.62;84.42;99290.98;104732;1290;61173;-59
2024/01/16 00:58:20;;;;;;;2.30;0.90;;;;;;;-4.62;84.34;99286.10;104755;1295;59336;-60
2024/01/16 01:01:06;;;;;;;3.00;1.10;;;;;;;-4.61;84.46;99293.34;104747;1291;74915;-59
2024/01/16 01:03:52;;;;;;;2.40;1.00;;;;;;;-4.59;84.41;99297.77;104732;1291;69191;-61
2024/01/16 01:06:38;;;;;;;2.50;1.00;;;;;;;-4.54;84.48;99297.55;104738;1294;71371;-59
2024/01/16 01:09:25;;;;;;;2.80;0.80;;;;;;;-4.52;84.37;99293.40;104692;1291;61156;-59
2024/01/16 01:12:11;;;;;;;3.60;1.00;;;;;;;-4.52;84.29;99300.80;104694;1296;61173;-59
2024/01/16 01:14:57;;;;;;;1.80;0.80;;;;;;;-4.53;84.23;99309.02;104849;1291;73255;-59
2024/01/16 01:17:43;;;;;;;3.40;1.00;;;;;;;-4.54;84.15;99305.95;104757;1291;67119;-60
2024/01/16 01:20:30;;;;;;;2.10;1.00;;;;;;;-4.59;84.11;99306.17;104797;1291;72452;-60
2024/01/16 01:23:16;;;;;;;2.20;1.00;;;;;;;-4.61;84.16;99312.52;104744;1290;62935;-58
2024/01/16 01:26:03;;;;;;;1.70;1.00;;;;;;;-4.65;84.20;99326.38;104744;1291;61281;-59
2024/01/16 01:28:50;;;;;;;4.00;0.80;;;;;;;-4.70;84.08;99336.55;104775;1293;73301;-60
2024/01/16 01:31:36;;;;;;;2.60;0.90;;;;;;;-4.76;84.05;99340.78;104756;1291;67359;-60
2024/01/16 01:34:22;;;;;;;2.90;1.30;;;;;;;-4.83;83.94;99344.98;104615;1291;71284;-59
2024/01/16 01:37:09;;;;;;;2.20;0.80;;;;;;;-4.89;84.04;99345.98;104761;1291;61527;-60
2024/01/16 01:39:55;;;;;;;3.00;1.00;;;;;;;-4.95;83.97;99353.56;104729;1291;61264;-59
2024/01/16 01:42:42;;;;;;;1.70;0.90;;;;;;;-5.02;83.96;99356.40;104628;1291;77148;-59
2024/01/16 01:45:28;;;;;;;1.80;0.80;;;;;;;-5.06;84.08;99359.15;104789;1290;69271;-59
2024/01/16 01:48:15;;;;;;;2.50;1.00;;;;;;;-5.12;84.04;99364.88;104785;1288;71271;-59
2024/01/16 01:51:02;;;;;;;2.10;1.00;;;;;;;-5.17;84.04;99367.60;104718;1291;61148;-59
2024/01/16 01:53:50;;;;;;;1.50;0.70;;;;;;;-5.23;84.03;99374.70;104947;1290;475557;-60
2024/01/16 01:56:37;;;;;;;5.00;1.20;;;;;;;-5.27;84.10;99380.80;105995;1291;73365;-61
2024/01/16 01:59:24;;;;;;;2.40;0.90;;;;;;;-5.29;84.06;99392.50;106056;1290;68570;-61
2024/01/16 02:02:11;;;;;;;2.40;1.10;;;;;;;-5.29;84.09;99390.14;101955;1292;5003390;-61
2024/01/16 02:04:57;;;;;;;1.40;0.80;;;;;;;-5.31;84.06;99390.42;106016;1291;58985;-60
2024/01/16 02:07:44;;;;;;;2.10;1.00;;;;;;;-5.35;83.96;99394.36;106027;1290;73349;-60
2024/01/16 02:10:31;;;;;;;1.90;1.00;;;;;;;-5.33;84.10;99399.95;106018;1290;68469;-61
2024/01/16 02:13:22;;;;;;;5.40;1.10;;;;;;;-5.32;84.01;99405.70;106043;1293;71336;-60
2024/01/16 02:16:19;;;;;;;2.20;0.90;;;;;;;-5.32;83.98;99408.55;105920;1291;59391;-61
2024/01/16 02:19:07;;;;;;;5.70;1.00;;;;;;;-5.29;84.13;99416.67;106030;1291;60245;-60
2024/01/16 02:21:59;;;;;;;2.60;1.20;;;;;;;-5.30;83.97;99416.81;106034;1290;73394;-61
2024/01/16 02:24:45;;;;;;;2.80;1.00;;;;;;;-5.33;83.91;99416.25;105954;1291;68811;-61
2024/01/16 02:27:31;;;;;;;3.20;1.10;;;;;;;-5.36;84.00;99412.82;106013;1290;72684;-61
2024/01/16 02:30:17;;;;;;;;;;;;;;;-5.35;84.12;99410.14;106054;1290;59494;-61
2024/01/16 02:33:03;;;;;;;1.80;0.70;;;;;;;-5.31;84.17;99411.75;105745;1291;234893;-60
2024/01/16 02:35:49;;;;;;;1.00;0.70;;;;;;;-5.28;84.26;99418.55;106039;1290;74244;-60
2024/01/16 02:38:35;;;;;;;2.10;1.00;;;;;;;-5.23;84.35;99422.23;105880;1289;67468;-60
2024/01/16 02:41:22;;;;;;;;;;;;;;;-5.22;84.29;99425.80;105976;1292;71309;-61
2024/01/16 02:44:07;;;;;;;2.10;1.00;;;;;;;-5.21;84.35;99433.20;106050;1291;59222;-60
2024/01/16 02:46:53;;;;;;;;;;;;;;;-5.19;84.28;99439.47;106033;1290;58999;-61
2024/01/16 02:49:40;;;;;;;1.60;0.70;;;;;;;-5.16;84.44;99443.41;106010;1291;73986;-61
2024/01/16 02:52:26;;;;;;;1.90;0.80;;;;;;;-5.10;84.51;99444.41;106016;1290;68676;-61
2024/01/16 02:55:12;;;;;;;2.20;0.70;;;;;;;-5.04;84.60;99451.79;106023;1290;71293;-61
2024/01/16 02:57:58;;;;;;;;;;;;;;;-4.99;84.60;99462.84;105985;1293;59610;-60
2024/01/16 03:00:43;;;;;;;3.10;1.00;;;;;;;-4.93;84.79;99468.05;105960;1290;60022;-61
2024/01/16 03:03:29;;;;;;;3.10;1.30;;;;;;;-4.89;84.63;99469.85;106025;1293;74383;-61
2024/01/16 03:06:24;;;;;;;2.40;1.10;;;;;;;-4.87;84.74;99469.73;106026;1290;67242;-61
2024/01/16 03:09:12;;;;;;;5.60;1.80;;;;;;;-4.85;84.82;99469.79;106008;1291;71329;-61
2024/01/16 03:11:59;;;;;;;4.70;1.50;;;;;;;-4.83;84.69;99473.04;106015;1291;60307;-61
2024/01/16 03:14:45;;;;;;;6.60;2.00;;;;;;;-4.83;84.59;99478.76;106066;1291;59372;-60
2024/01/16 03:17:31;;;;;;;;;;;;;;;-4.86;84.62;99482.19;106025;1290;72393;-60
2024/01/16 03:20:18;;;;;;;29.00;7.50;;;;;;;-4.84;84.77;99476.38;106053;1290;67751;-61
2024/01/16 03:23:04;;;;;;;28.30;6.80;;;;;;;-4.82;84.75;99475.58;106037;1291;72084;-61
2024/01/16 03:25:50;;;;;;;29.50;6.60;;;;;;;-4.85;84.70;99480.71;106007;1290;59322;-61
2024/01/16 03:28:36;;;;;;;;;;;;;;;-4.89;84.62;99489.52;106069;1291;59680;-61
2024/01/16 03:31:22;;;;;;;22.40;6.20;;;;;;;-4.87;84.79;99496.11;105954;1291;75242;-61
2024/01/16 03:34:10;;;;;;;27.10;6.70;;;;;;;-4.91;84.58;99502.55;106027;1289;67479;-60
2024/01/16 03:36:56;;;;;;;28.50;7.00;;;;;;;-4.93;84.65;99502.67;106029;1290;71209;-61
2024/01/16 03:39:44;;;;;;;32.40;6.30;;;;;;;-4.95;84.63;99499.10;105918;1289;59023;-61
2024/01/16 03:42:30;;;;;;;25.50;6.00;;;;;;;-4.94;84.71;99501.64;106042;1290;59411;-61
2024/01/16 03:45:16;;;;;;;26.50;5.80;;;;;;;-4.95;84.67;99503.46;106014;1291;74348;-61
2024/01/16 03:48:05;;;;;;;25.50;5.60;;;;;;;-4.99;84.59;99508.72;106028;1290;67807;-59
2024/01/16 03:50:51;;;;;;;19.20;5.00;;;;;;;-5.00;84.80;99515.09;106019;1291;72464;-61
2024/01/16 03:53:37;;;;;;;20.30;4.70;;;;;;;-4.98;84.91;99520.84;105781;1293;249005;-60
2024/01/16 03:56:23;;;;;;;14.60;4.20;;;;;;;-4.96;84.96;99526.30;105990;1292;59280;-61
2024/01/16 03:59:09;;;;;;;;;;;;;;;-4.95;84.81;99534.88;106058;1291;74544;-61
2024/01/16 04:02:14;;;;;;;;;;;;;;;-5.00;84.64;99536.94;53850;1290;20001248;-61
2024/01/16 04:05:10;;;;;;;15.20;5.30;;;;;;;-5.03;84.80;99532.32;105922;1291;79797;-61
2024/01/16 04:07:57;;;;;;;14.10;5.20;;;;;;;-5.02;84.80;99533.34;105588;1295;68918;-59
2024/01/16 04:10:43;;;;;;;18.40;5.40;;;;;;;-5.06;84.73;99539.80;104758;1291;71298;-60
2024/01/16 04:13:29;;;;;;;16.20;5.00;;;;;;;-5.13;84.67;99549.00;104722;1290;64161;-59
2024/01/16 04:16:16;;;;;;;12.00;4.40;;;;;;;-5.20;84.68;99552.98;104760;1291;61616;-60
2024/01/16 04:19:03;;;;;;;11.90;4.50;;;;;;;-5.29;84.62;99557.09;104620;1290;75552;-59
2024/01/16 04:21:49;;;;;;;16.90;5.20;;;;;;;-5.40;84.55;99563.15;104737;1292;68969;-60
2024/01/16 04:24:36;;;;;;;13.50;3.60;;;;;;;-5.56;84.45;99569.52;104667;1291;71276;-59
2024/01/16 04:27:22;;;;;;;11.80;4.50;;;;;;;-5.81;84.28;99578.14;104730;1291;61169;-64
2024/01/16 04:30:09;;;;;;;16.30;4.70;;;;;;;-5.99;84.30;99582.61;104729;1295;61130;-59
2024/01/16 04:32:55;;;;;;;16.40;5.10;;;;;;;-6.14;84.33;99577.42;104703;1290;74066;-60
2024/01/16 04:35:41;;;;;;;17.10;5.90;;;;;;;-6.32;84.23;99576.02;104770;1290;67260;-60
2024/01/16 04:38:28;;;;;;;12.70;4.70;;;;;;;-6.47;84.31;99585.53;104481;1291;72182;-59
2024/01/16 04:41:18;;;;;;;15.10;5.00;;;;;;;-6.57;84.24;99584.70;104697;1294;61027;-59
2024/01/16 04:44:04;;;;;;;15.70;5.20;;;;;;;-6.72;84.19;99584.30;106030;1290;59226;-61
2024/01/16 04:46:50;;;;;;;9.80;3.70;;;;;;;-6.80;84.43;99585.04;106039;1291;75058;-60
2024/01/16 04:49:36;;;;;;;12.80;4.20;;;;;;;-6.91;84.23;99590.67;106010;1291;67536;-60
2024/01/16 04:52:22;;;;;;;10.80;3.40;;;;;;;-6.99;84.20;99596.39;105989;1292;71897;-61
2024/01/16 04:55:08;;;;;;;6.50;2.90;;;;;;;-7.05;84.14;99600.05;106016;1290;59168;-61
2024/01/16 04:57:55;;;;;;;6.40;2.50;;;;;;;-7.09;84.12;99600.23;106039;1291;59229;-60
2024/01/16 05:00:41;;;;;;;12.10;3.10;;;;;;;-7.12;84.12;99605.80;106054;1289;73305;-61
2024/01/16 05:03:27;;;;;;;5.80;2.70;;;;;;;-7.15;84.11;99607.00;105964;1291;68582;-60
2024/01/16 05:06:17;;;;;;;7.00;2.80;;;;;;;-7.21;83.97;99603.77;105797;1293;190633;-61
2024/01/16 05:09:03;;;;;;;3.60;2.30;;;;;;;-7.24;84.01;99608.33;105990;1291;59359;-61
2024/01/16 05:11:49;;;;;;;6.30;3.10;;;;;;;-7.30;83.92;99609.82;106061;1290;60588;-61
2024/01/16 05:14:35;;;;;;;6.60;3.00;;;;;;;-7.38;83.75;99609.17;106052;1291;74600;-61
2024/01/16 05:17:21;;;;;;;6.90;2.80;;;;;;;-7.49;83.66;99616.61;106036;1289;67220;-61
2024/01/16 05:20:08;;;;;;;;;;;;;;;-7.62;83.45;99616.77;106028;1290;72589;-60
2024/01/16 05:22:54;;;;;;;7.40;3.20;;;;;;;-7.75;83.45;99625.41;106031;1291;58928;-61
2024/01/16 05:25:59;;;;;;;8.90;2.60;;;;;;;-7.93;83.13;99635.23;106052;1291;66169;-60
2024/01/16 05:28:45;;;;;;;8.00;3.00;;;;;;;-8.05;83.32;99639.11;106007;1290;73318;-61
2024/01/16 05:31:32;;;;;;;5.60;2.60;;;;;;;-8.10;83.44;99642.91;106053;1288;69508;-61
2024/01/16 05:34:17;;;;;;;4.50;2.60;;;;;;;-8.14;83.59;99644.91;106055;1291;71415;-61
2024/01/16 05:37:03;;;;;;;4.00;1.90;;;;;;;-8.19;83.62;99648.69;106027;1291;59367;-61
2024/01/16 05:39:49;;;;;;;3.70;2.20;;;;;;;-8.30;83.56;99647.73;105989;1293;59340;-61
2024/01/16 05:42:35;;;;;;;5.00;2.10;;;;;;;-8.34;83.64;99652.11;105945;1296;74559;-60
2024/01/16 05:45:21;;;;;;;4.40;1.50;;;;;;;-8.37;83.69;99652.16;105936;1294;68419;-61
2024/01/16 05:48:08;;;;;;;6.90;2.40;;;;;;;-8.39;83.68;99657.91;105972;1291;72516;-61
2024/01/16 05:50:54;;;;;;;5.10;2.10;;;;;;;-8.43;83.63;99662.07;105912;1292;59305;-61
2024/01/16 05:53:40;;;;;;;7.10;3.20;;;;;;;-8.50;83.50;99666.09;105976;1294;59658;-60
2024/01/16 05:56:26;;;;;;;4.70;2.90;;;;;;;-8.58;83.39;99668.45;105724;1292;237120;-61
2024/01/16 05:59:12;;;;;;;4.40;2.70;;;;;;;-8.63;83.44;99670.02;105961;1295;68494;-61
2024/01/16 06:01:58;;;;;;;5.00;2.10;;;;;;;-8.66;83.57;99670.39;105922;1295;72410;-61
2024/01/16 06:04:44;;;;;;;4.60;1.80;;;;;;;-8.69;83.44;99675.80;105047;1292;61137;-59
2024/01/16 06:07:30;;;;;;;5.10;2.10;;;;;;;-8.71;83.37;99680.24;104647;1295;61151;-60
2024/01/16 06:10:17;;;;;;;5.20;2.10;;;;;;;-8.76;83.22;99688.84;104708;1292;75944;-59
2024/01/16 06:13:03;;;;;;;3.50;1.80;;;;;;;-8.82;83.55;99690.72;104738;1293;67271;-59
2024/01/16 06:15:49;;;;;;;4.20;2.30;;;;;;;-8.81;83.73;99694.26;104654;1294;74049;-59
2024/01/16 06:18:36;;;;;;;5.10;2.70;;;;;;;-8.84;83.61;99691.65;104659;1293;61296;-60
2024/01/16 06:21:22;;;;;;;3.40;2.00;;;;;;;-8.88;83.48;99693.97;104510;1294;61138;-59
2024/01/16 06:24:08;;;;;;;6.40;2.50;;;;;;;-8.98;83.31;99699.55;104660;1292;73263;-59
2024/01/16 06:26:55;;;;;;;3.10;1.80;;;;;;;-9.06;83.26;99703.67;104657;1292;69116;-60
2024/01/16 06:29:41;;;;;;;2.60;1.90;;;;;;;-9.13;83.21;99710.84;104502;1296;71290;-60
2024/01/16 06:32:28;;;;;;;5.30;2.50;;;;;;;-9.21;83.26;99716.30;104628;1291;61280;-60
2024/01/16 06:35:15;;;;;;;8.30;1.80;;;;;;;-9.22;83.37;99716.07;104678;1292;59294;-60
2024/01/16 06:38:01;;;;;;;3.90;2.00;;;;;;;-9.28;83.25;99720.81;104676;1296;73355;-59
2024/01/16 06:40:48;;;;;;;5.10;2.10;;;;;;;-9.31;83.22;99723.14;104601;1293;69233;-60
2024/01/16 06:43:34;;;;;;;4.00;2.20;;;;;;;-9.36;83.21;99727.93;104621;1296;74018;-59
2024/01/16 06:46:20;;;;;;;2.70;1.50;;;;;;;-9.42;83.01;99730.64;104613;1295;62690;-59
2024/01/16 06:49:07;;;;;;;2.30;1.60;;;;;;;-9.51;83.01;99734.55;104678;1295;62862;-58
2024/01/16 06:51:53;;;;;;;2.50;1.80;;;;;;;-9.56;83.02;99739.81;104619;1294;73284;-59
2024/01/16 06:54:39;;;;;;;3.50;1.80;;;;;;;-9.59;83.05;99744.67;104651;1295;70004;-59
2024/01/16 06:57:25;;;;;;;3.20;2.20;;;;;;;-9.64;83.04;99751.89;104483;1294;71200;-60
2024/01/16 07:00:14;;;;;;;2.60;1.50;;;;;;;-9.69;82.97;99757.48;104660;1296;61190;-59
2024/01/16 07:03:00;;;;;;;3.40;1.60;;;;;;;-9.74;82.95;99765.08;105973;1295;58923;-60
2024/01/16 07:05:46;;;;;;;4.20;1.60;;;;;;;-9.78;82.88;99772.54;105936;1294;74639;-60
2024/01/16 07:08:32;;;;;;;4.20;1.80;;;;;;;-9.81;82.96;99784.75;105879;1292;68533;-61
2024/01/16 07:11:18;;;;;;;3.40;2.50;;;;;;;-9.82;82.96;99789.34;105381;1295;71367;-61
2024/01/16 07:14:07;;;;;;;5.50;2.30;;;;;;;-9.82;83.08;99798.37;104626;1293;61293;-58
2024/01/16 07:16:54;;;;;;;4.60;2.50;;;;;;;-9.78;83.08;99803.05;104654;1295;61123;-59
2024/01/16 07:19:40;;;;;;;4.40;2.50;;;;;;;-9.75;83.11;99809.25;104546;1291;75122;-60
2024/01/16 07:22:27;;;;;;;3.30;2.40;;;;;;;-9.69;83.20;99816.21;104743;1292;67217;-59
2024/01/16 07:25:13;;;;;;;6.00;2.90;;;;;;;-9.66;83.18;99820.19;104682;1296;70673;-60
2024/01/16 07:28:00;;;;;;;6.60;2.90;;;;;;;-9.64;83.09;99820.27;104587;1295;61284;-60
2024/01/16 07:30:46;;;;;;;5.20;2.40;;;;;;;-9.64;83.07;99826.42;104671;1291;64461;-60
2024/01/16 07:33:33;;;;;;;6.20;3.10;;;;;;;-9.62;83.04;99828.23;101283;1295;5002485;-61
2024/01/16 07:36:19;;;;;;;7.50;4.50;;;;;;;-9.49;83.26;99827.38;105790;1290;72999;-61
2024/01/16 07:39:05;;;;;;;6.50;4.10;;;;;;;-9.31;83.34;99830.61;105457;1292;324736;-61
2024/01/16 07:41:51;;;;;;;5.50;3.10;;;;;;;-9.12;83.58;99828.38;101852;1292;5003873;-61
2024/01/16 07:44:37;;;;;;;5.60;2.70;;;;;;;-8.84;83.78;99831.77;105791;1291;75010;-61
2024/01/16 07:47:23;;;;;;;3.80;2.40;;;;;;;-8.35;83.93;99835.55;105936;1290;68688;-61
2024/01/16 07:50:10;;;;;;;;;;;;;;;-7.76;83.95;99833.35;105917;1293;70454;-61
2024/01/16 07:52:56;;;;;;;5.80;2.60;;;;;;;-7.39;83.95;99836.45;105895;1295;58975;-61
2024/01/16 07:55:42;;;;;;;4.00;2.40;;;;;;;-7.15;83.69;99841.61;105949;1291;59910;-61
2024/01/16 07:58:28;;;;;;;4.60;3.00;;;;;;;-6.74;84.06;99841.45;105915;1292;73602;-59
2024/01/16 08:01:14;;;;;;;;;;;;;;;-6.30;84.15;99846.36;105966;1292;68569;-61
2024/01/16 08:04:00;;;;;;;4.80;2.30;;;;;;;-5.81;84.15;99845.16;105950;1292;72364;-61
2024/01/16 08:06:47;;;;;;;3.30;2.70;;;;;;;-5.62;84.10;99853.23;105916;1293;59675;-61
2024/01/16 08:09:33;;;;;;;5.10;3.30;;;;;;;-5.46;84.29;99861.52;105935;1292;60096;-61
2024/01/16 08:12:18;;;;;;;5.70;3.70;;;;;;;-5.20;84.55;99864.77;105892;1293;74510;-61
2024/01/16 08:15:07;;;;;;;4.50;2.80;;;;;;;-5.03;84.65;99866.02;105769;1292;67366;-61
2024/01/16 08:17:53;;;;;;;4.70;3.30;;;;;;;-4.93;84.66;99868.38;105889;1293;73124;-61
2024/01/16 08:20:39;;;;;;;;;;;;;;;-4.86;84.69;99873.46;105908;1292;59151;-61
2024/01/16 08:23:25;;;;;;;4.70;3.00;;;;;;;-4.82;84.60;99880.52;105951;1293;58760;-61
2024/01/16 08:26:11;;;;;;;5.10;3.00;;;;;;;-4.88;84.43;99892.58;105823;1293;74680;-61
2024/01/16 08:28:57;;;;;;;;;;;;;;;-4.87;84.69;99892.27;105802;1296;67588;-61
2024/01/16 08:31:43;;;;;;;4.20;2.80;;;;;;;-4.76;84.94;99880.90;105054;1292;71901;-57
2024/01/16 08:34:30;;;;;;;4.30;2.70;;;;;;;-4.58;85.26;99883.98;104585;1292;61347;-60
2024/01/16 08:37:16;;;;;;;5.80;2.80;;;;;;;-4.47;85.28;99888.69;104605;1292;62926;-60
2024/01/16 08:40:04;;;;;;;5.30;2.20;;;;;;;-4.36;85.34;99891.27;104589;1293;73629;-60
2024/01/16 08:42:54;;;;;;;4.50;2.30;;;;;;;-4.29;85.36;99896.00;104533;1293;67451;-60
2024/01/16 08:45:41;;;;;;;4.50;2.60;;;;;;;-4.23;85.40;99906.79;104428;1294;75215;-61
2024/01/16 08:48:27;;;;;;;4.50;2.00;;;;;;;-4.24;85.22;99914.35;104642;1293;64973;-61
2024/01/16 08:51:14;;;;;;;4.50;2.30;;;;;;;-4.30;84.90;99913.31;105838;1291;59268;-61
2024/01/16 08:54:00;;;;;;;6.80;3.30;;;;;;;-4.31;84.88;99914.77;105364;1292;73129;-61
2024/01/16 08:56:46;;;;;;;10.30;2.80;;;;;;;-4.26;85.06;99911.59;104470;1293;68692;-60
2024/01/16 08:59:32;;;;;;;8.40;3.40;;;;;;;-4.14;85.25;99913.95;104561;1295;71260;-61
2024/01/16 09:02:18;;;;;;;15.70;7.40;;;;;;;-4.03;85.34;99921.89;104681;1294;61951;-60
2024/01/16 09:05:05;;;;;;;8.80;5.50;;;;;;;-3.95;85.41;99923.98;104691;1292;61556;-60
2024/01/16 09:07:52;;;;;;;8.40;4.10;;;;;;;-3.84;85.35;99927.84;105768;1292;74316;-61
2024/01/16 09:10:38;;;;;;;7.20;4.70;;;;;;;-3.78;85.41;99929.89;105951;1294;67455;-62
2024/01/16 09:13:24;;;;;;;9.10;4.90;;;;;;;-3.76;85.37;99937.02;98389;1293;10003191;-61
2024/01/16 09:16:10;;;;;;;7.50;4.10;;;;;;;-3.76;85.11;99944.45;105000;1293;60656;-61
2024/01/16 09:18:56;;;;;;;5.90;3.70;;;;;;;-3.70;85.15;99940.56;104609;1293;76027;-61
2024/01/16 09:21:42;;;;;;;7.40;2.70;;;;;;;-3.56;85.08;99942.13;104340;1295;70075;-61
2024/01/16 09:24:30;;;;;;;5.60;3.00;;;;;;;-3.38;85.43;99939.80;104556;1293;71260;-60
2024/01/16 09:27:16;;;;;;;3.80;1.90;;;;;;;-3.15;85.44;99940.11;104695;1293;63683;-60
2024/01/16 09:30:04;;;;;;;3.20;1.90;;;;;;;-3.06;85.42;99937.84;104596;1291;59389;-60
2024/01/16 09:32:50;;;;;;;2.90;1.70;;;;;;;-2.96;85.20;99941.14;105140;1293;72472;-63
2024/01/16 09:35:36;;;;;;;3.40;1.20;;;;;;;-2.98;84.93;99942.27;104677;1292;67123;-64
2024/01/16 09:38:23;;;;;;;2.50;1.50;;;;;;;-2.98;84.86;99940.73;104608;1293;74272;-60
2024/01/16 09:41:10;;;;;;;1.40;1.00;;;;;;;-2.90;85.35;99933.38;104614;1293;61268;-59
2024/01/16 09:43:56;;;;;;;3.20;1.40;;;;;;;-2.83;85.28;99939.83;104606;1293;62643;-60
2024/01/16 09:46:48;;;;;;;3.70;1.70;;;;;;;-2.56;85.72;99937.27;104641;1293;73277;-60
2024/01/16 09:49:34;;;;;;;2.00;1.00;;;;;;;-2.02;86.06;99938.61;105961;1292;68794;-61
2024/01/16 09:52:20;;;;;;;2.00;1.30;;;;;;;-1.75;83.46;99933.82;105920;1293;72657;-62
2024/01/16 09:55:07;;;;;;;1.60;1.40;;;;;;;-1.35;83.42;99941.77;105867;1296;59452;-61
2024/01/16 09:57:53;;;;;;;3.20;1.70;;;;;;;-1.27;82.46;99947.17;105818;1291;70256;-62
2024/01/16 10:00:40;;;;;;;2.60;1.50;;;;;;;-1.11;82.59;99953.75;105892;1291;73425;-61
2024/01/16 10:03:30;;;;;;;3.80;1.40;;;;;;;-0.98;82.09;99957.89;105127;1292;68284;-61
2024/01/16 10:06:19;;;;;;;4.90;1.50;;;;;;;-0.64;84.21;99961.23;104501;1292;71189;-61
2024/01/16 10:09:06;;;;;;;4.10;1.30;;;;;;;-0.38;82.76;99960.67;104585;1294;61141;-61
2024/01/16 10:11:53;;;;;;;3.00;2.40;;;;;;;-0.65;82.07;99962.74;104665;1294;60758;-62
2024/01/16 10:14:43;;;;;;;4.30;1.40;;;;;;;-0.77;83.49;99963.71;104620;1291;73781;-61
2024/01/16 10:17:37;;;;;;;2.30;1.30;;;;;;;-0.80;82.75;99967.02;104599;1293;67393;-60
2024/01/16 10:20:34;;;;;;;5.00;1.50;;;;;;;-1.17;81.61;99971.39;104589;1291;71326;-61
2024/01/16 10:23:32;;;;;;;7.00;1.60;;;;;;;-1.36;82.69;99971.33;104687;1292;61277;-60
2024/01/16 10:26:21;;;;;;;3.50;1.50;;;;;;;-1.43;82.54;99972.20;104623;1294;61841;-60
2024/01/16 10:29:09;;;;;;;3.30;1.20;;;;;;;-1.42;82.62;99975.92;105487;1293;73707;-61
2024/01/16 10:31:55;;;;;;;1.70;1.00;;;;;;;-1.52;82.61;99979.59;104498;1291;71394;-61
2024/01/16 10:34:42;;;;;;;;;;;;;;;-1.55;82.81;99983.09;104550;1294;74320;-61
2024/01/16 10:37:28;;;;;;;4.60;1.60;;;;;;;-1.65;82.11;99979.31;104574;1293;61315;-60
2024/01/16 10:40:19;;;;;;;1.90;0.90;;;;;;;-1.73;82.12;99977.96;104625;1291;61588;-61
2024/01/16 10:43:05;;;;;;;1.00;0.80;;;;;;;-1.85;82.19;99977.84;104674;1291;77108;-60
2024/01/16 10:46:07;;;;;;;1.60;1.00;;;;;;;-1.84;82.11;99974.33;104633;1293;67253;-60
2024/01/16 10:49:01;;;;;;;2.00;1.50;;;;;;;-1.71;81.10;99976.98;105947;1290;71573;-61
2024/01/16 10:51:49;;;;;;;3.90;1.50;;;;;;;-1.44;81.87;99980.45;105751;1292;60121;-62
2024/01/16 10:54:41;;;;;;;3.00;1.30;;;;;;;-1.23;80.47;99975.14;105969;1290;58856;-61
2024/01/16 10:57:31;;;;;;;3.10;1.40;;;;;;;-1.05;80.48;99964.86;105871;1291;74645;-62
2024/01/16 11:00:21;;;;;;;2.90;1.00;;;;;;;-0.71;81.75;99958.05;105901;1290;67229;-61
2024/01/16 11:03:11;;;;;;;1.70;1.10;;;;;;;-0.32;81.82;99965.17;105512;1290;71398;-61
2024/01/16 11:05:59;;;;;;;3.80;1.50;;;;;;;0.39;79.32;99963.23;104623;1290;61287;-61
2024/01/16 11:08:47;;;;;;;2.90;1.80;;;;;;;1.04;81.60;99959.31;104682;1292;63389;-61
2024/01/16 11:11:34;;;;;;;3.90;2.20;;;;;;;1.62;81.48;99956.15;104620;1292;77307;-61
2024/01/16 11:14:22;;;;;;;4.80;2.00;;;;;;;1.80;81.84;99957.52;104681;1291;69952;-61
2024/01/16 11:17:17;;;;;;;3.20;2.10;;;;;;;1.56;77.94;99963.58;104707;1295;73449;-61
2024/01/16 11:20:09;;;;;;;5.00;2.10;;;;;;;0.65;76.70;99979.86;105610;1292;58937;-60
2024/01/16 11:22:59;;;;;;;2.30;1.50;;;;;;;0.07;76.64;99988.02;105642;1291;61284;-61
2024/01/16 11:25:45;;;;;;;3.00;1.60;;;;;;;0.02;80.07;99989.27;105914;1293;73290;-62
2024/01/16 11:28:32;;;;;;;3.90;1.60;;;;;;;0.13;79.39;99989.45;104653;1293;67466;-61
2024/01/16 11:31:32;;;;;;;5.10;1.60;;;;;;;-0.03;78.47;99997.52;104639;1296;71375;-59
2024/01/16 11:34:51;;;;;;;3.30;1.70;;;;;;;-0.13;78.78;99999.73;104591;1293;61316;-60
2024/01/16 11:37:40;;;;;;;4.80;2.00;;;;;;;-0.45;78.02;100007.61;104601;1290;61571;-61
2024/01/16 11:40:32;;;;;;;4.60;1.70;;;;;;;-0.70;77.49;100017.82;104704;1295;73255;-60
2024/01/16 11:43:39;;;;;;;3.10;1.90;;;;;;;-0.92;77.99;100015.00;104702;1290;67233;-60
2024/01/16 11:47:00;;;;;;;3.40;1.70;;;;;;;-0.96;78.34;100012.23;104618;1291;71286;-60
2024/01/16 11:49:47;;;;;;;2.20;1.10;;;;;;;-1.15;76.32;100017.09;104579;1290;61115;-59
2024/01/16 11:52:42;;;;;;;5.00;2.10;;;;;;;-1.29;76.50;100015.60;104672;1290;61109;-60
2024/01/16 11:55:33;;;;;;;5.00;1.60;;;;;;;-1.39;77.88;100023.15;104569;1291;75687;-60
2024/01/16 11:58:52;;;;;;;4.20;1.70;;;;;;;-1.44;77.66;100023.38;104621;1290;67395;-61
2024/01/16 12:01:44;;;;;;;4.70;2.10;;;;;;;-1.35;77.74;100014.28;104641;1292;71171;-60
2024/01/16 12:04:31;;;;;;;3.70;1.40;;;;;;;-1.38;77.59;100012.86;104567;1291;61173;-60
2024/01/16 12:07:17;;;;;;;4.40;1.50;;;;;;;-1.22;79.22;100015.40;104714;1290;61293;-61
2024/01/16 12:10:03;;;;;;;;;;;;;;;-0.98;79.55;100011.34;104570;1293;73522;-60
2024/01/16 12:12:51;;;;;;;4.50;1.70;;;;;;;-0.81;77.83;100008.46;104570;1290;67274;-60
2024/01/16 12:15:38;;;;;;;3.30;1.60;;;;;;;-0.52;78.51;100006.98;104614;1292;71190;-60
2024/01/16 12:18:24;;;;;;;3.40;2.10;;;;;;;0.12;79.84;100005.04;104613;1291;62816;-60
2024/01/16 12:21:11;;;;;;;2.40;1.50;;;;;;;0.33;77.65;100005.70;104481;1291;61409;-60
2024/01/16 12:23:58;;;;;;;3.30;1.80;;;;;;;0.15;78.51;100005.58;104513;1292;73447;-60
2024/01/16 12:26:45;;;;;;;3.10;1.70;;;;;;;0.82;80.26;99999.58;104596;1293;67260;-60
2024/01/16 12:29:32;;;;;;;4.60;2.00;;;;;;;1.99;80.23;99992.16;104557;1294;71128;-60
2024/01/16 12:32:21;;;;;;;6.10;2.10;;;;;;;2.76;77.99;99992.17;104639;1294;61257;-61
2024/01/16 12:35:07;;;;;;;5.10;2.00;;;;;;;3.00;76.15;99986.85;104566;1292;61119;-61
2024/01/16 12:37:57;;;;;;;;;;;;;;;3.28;78.52;99979.10;104602;1295;73283;-61
2024/01/16 12:40:50;;;;;;;7.80;2.10;;;;;;;3.83;78.23;99980.04;104736;1290;70094;-59
2024/01/16 12:43:38;;;;;;;2.80;2.40;;;;;;;4.31;77.21;99984.63;104690;1291;70348;-59
2024/01/16 12:46:24;;;;;;;5.60;2.20;;;;;;;4.58;78.29;99988.36;104678;1291;61887;-59
2024/01/16 12:49:11;;;;;;;3.50;2.10;;;;;;;4.81;79.33;99989.47;104722;1291;61221;-59
2024/01/16 12:52:26;;;;;;;5.20;2.20;;;;;;;4.69;73.47;99992.08;104724;1290;73164;-57
2024/01/16 12:55:13;;;;;;;2.80;2.10;;;;;;;4.11;72.40;99998.29;104712;1291;69064;-59
2024/01/16 12:58:17;;;;;;;3.80;2.10;;;;;;;3.65;75.31;99999.13;104715;1289;73156;-59
2024/01/16 13:01:24;;;;;;;2.70;1.90;;;;;;;3.02;75.55;99998.25;104775;1288;61369;-59
2024/01/16 13:04:11;;;;;;;4.10;1.90;;;;;;;2.59;76.86;99996.34;104662;1291;61165;-59